METAR Data
IDs: Format: Raw Decoded Include TAF

Data at: 1547 UTC 18 Aug 2019

PASN 181453Z AUTO A3032 RMK AO2 SLP269 58014 PWINO FZRANO TSNO $
PASN 181353Z AUTO A3034 RMK AO2 SLP276 PWINO FZRANO TSNO $
PASN 181253Z AUTO A3035 RMK SLP279 PWINO FZRANO TSNO $ VIA AUTODIAL
PASN 181153Z AUTO A3036 RMK AO2 SLP283 57017 PWINO FZRANO TSNO $
PASN 181053Z AUTO A3038 RMK AO2 SLP289 PWINO FZRANO TSNO $
PASN 180953Z AUTO A3039 RMK AO2 SLP293 PWINO FZRANO TSNO $
PASN 180853Z AUTO A3041 RMK SLP299 58007 PWINO FZRANO TSNO $ VIA AUTODIAL
PASN 180753Z AUTO A3042 RMK SLP303 PWINO FZRANO TSNO $ VIA AUTODIAL
PASN 180653Z AUTO A3043 RMK AO2 SLP306 PWINO FZRANO TSNO $
PASN 180553Z AUTO A3043 RMK AO2 SLP306 57007 PWINO FZRANO TSNO $
PASN 180453Z AUTO A3043 RMK SLP306 PWINO FZRANO TSNO $ VIA AUTODIAL
PASN 180353Z AUTO A3045 RMK AO2 SLP313 PWINO FZRANO TSNO $
PASN 180253Z AUTO A3045 RMK SLP313 PWINO FZRANO TSNO $ VIA AUTODIAL
PASN 180153Z AUTO A3046 RMK AO2 SLP316 PWINO FZRANO TSNO $
PASN 180053Z AUTO A3047 RMK AO2 SLP320 PWINO FZRANO TSNO $
PASN 172353Z AUTO 12/11 A3047 RMK SLP319 T01220111 10139 20117 58004 PWINO TSNO $ VIA AUTODIAL
PASN 172351Z AUTO 12/11 A3047 RMK TSNO $ VIA AUTODIAL
PASN 172344Z AUTO 2 1/2SM BR 12/11 A3047 RMK T01220111 TSNO $ VIA AUTODIAL
PASN 172335Z AUTO 08012KT 3SM BR OVC002 12/11 A3048 RMK AO2 T01170106 TSNO $
PASN 172253Z AUTO 08011KT 3/4SM BR OVC002 12/11 A3049 RMK AO2 SLP324 T01170106 TSNO $
PASN 172233Z AUTO 07009KT 1/2SM FG VV002 12/11 A3049 RMK AO2 T01170106 TSNO $
PASN 172216Z AUTO 08010KT 3/4SM BR VV002 12/11 A3049 RMK AO2 T01220111 TSNO $
PASN 172153Z AUTO 08010KT 1/4SM FG VV002 12/11 A3049 RMK SLP326 T01170111 TSNO $ VIA AUTODIAL
PASN 172112Z AUTO 09011KT 1/2SM FG OVC003 12/11 A3050 RMK T01170106 TSNO $ VIA AUTODIAL
PASN 172109Z AUTO 09012KT 1SM BR OVC003 12/11 A3050 RMK T01170111 TSNO $ VIA AUTODIAL
PASN 172101Z AUTO 09011KT 2 1/2SM BR BKN003 12/11 A3050 RMK AO2 T01220111 TSNO $
PASN 172053Z AUTO 08012KT 9SM BKN005 13/11 A3050 RMK AO2 SLP327 T01280111 53001 TSNO $
PASN 172043Z AUTO 08012KT 10SM SCT006 13/12 A3050 RMK AO2 T01330117 TSNO $
PASN 171953Z AUTO 09008KT 9SM CLR 13/12 A3049 RMK AO2 SLP326 T01330117 TSNO $
PASN 171853Z AUTO 09007KT 6SM BR CLR 13/12 A3049 RMK AO2 SLP326 T01280122 TSNO $
PASN 171753Z AUTO 09007KT 5SM BR CLR 12/11 A3049 RMK SLP326 T01220111 10122 20072 57000 TSNO $ VIA AUTODIAL
PASN 171719Z AUTO 09006KT 4SM BR SCT001 12/11 A3049 RMK T01170111 TSNO $ VIA AUTODIAL
PASN 171708Z AUTO 09006KT 3SM BR BKN001 12/11 A3049 RMK T01170106 TSNO $ VIA AUTODIAL
PASN 171653Z AUTO 10006KT 3SM BR FEW001 11/11 A3049 RMK SLP326 T01110106 TSNO $ VIA AUTODIAL
PASN 171635Z AUTO 10006KT 3SM BR SCT001 11/10 A3049 RMK T01060100 TSNO $ VIA AUTODIAL
PASN 171615Z AUTO 10006KT 2SM BR SCT001 10/09 A3049 RMK T01000094 TSNO $ VIA AUTODIAL
PASN 171611Z AUTO 11006KT 1SM BR VV001 10/09 A3049 RMK AO2 T01000094 TSNO $
PASN 171553Z AUTO 09004KT 1/4SM FG VV001 08/07 A3049 RMK AO2 SLP326 T00780072 TSNO $
PASN 171543Z AUTO 09004KT 1/2SM FG VV002 08/08 A3050 RMK AO2 T00830083 TSNO $
PASN 171540Z AUTO 09006KT 3/4SM BR CLR 09/08 A3050 RMK AO2 T00890083 TSNO $
PASN 171518Z AUTO 09004KT 1/2SM FG VV002 08/07 A3050 RMK AO2 T00780072 TSNO $
PASN 171453Z AUTO 11005KT 3SM BR CLR 09/09 A3050 RMK AO2 SLP329 T00940089 56003 TSNO $
PASN 171450Z AUTO 11005KT 1 3/4SM BR CLR 09/08 A3050 RMK AO2 TSNO $
PASN 171408Z AUTO 00000KT 1 3/4SM BR CLR 08/08 A3051 RMK AO2 T00830083 TSNO $
PASN 171353Z AUTO 12004KT 6SM BR CLR 10/09 A3051 RMK SLP332 T01000094 TSNO $ VIA AUTODIAL
PASN 171253Z AUTO 13006KT 8SM CLR 11/10 A3051 RMK SLP332 T01060100 TSNO $ VIA AUTODIAL
PASN 171153Z AUTO 13007KT 8SM CLR 11/10 A3052 RMK SLP333 T01060100 10117 20100 55001 TSNO $ VIA AUTODIAL
PASN 171053Z AUTO 13009KT 8SM CLR 11/09 A3051 RMK AO2 SLP333 T01060094 TSNO $
PASN 170953Z AUTO 14007KT 10SM CLR 11/10 A3052 RMK AO2 SLP333 T01110100 TSNO $
PASN 170853Z AUTO 13005KT 9SM CLR 11/09 A3052 RMK SLP334 T01060094 401390100 53007 TSNO $ VIA AUTODIAL
PASN 170753Z AUTO 17006KT 8SM CLR 10/09 A3050 RMK AO2 SLP329 T01000089 TSNO $
PASN 170653Z AUTO 16007KT 7SM CLR 11/09 A3050 RMK SLP329 T01110094 TSNO $ VIA AUTODIAL
PASN 170553Z AUTO 17006KT 7SM CLR 12/10 A3050 RMK AO2 SLP327 T01170100 10139 20117 58001 TSNO $
PASN 170453Z AUTO 16006KT 7SM CLR 12/11 A3050 RMK AO2 SLP329 T01220106 TSNO $
PASN 170353Z AUTO 16007KT 7SM CLR 13/11 A3050 RMK AO2 SLP328 T01280106 TSNO $